createdAt,value
2022-12-11T00:00:01.767Z,47.40
2022-12-11T00:05:03.283Z,49.88
2022-12-11T00:10:05.408Z,47.22
2022-12-11T00:15:07.368Z,52.75
2022-12-11T00:20:09.370Z,46.28
2022-12-11T00:25:11.199Z,44.25
2022-12-11T00:30:13.710Z,46.50
2022-12-11T00:35:15.171Z,50.25
2022-12-11T00:40:16.641Z,45.70
2022-12-11T00:45:18.092Z,47.40
2022-12-11T00:50:19.555Z,46.78
2022-12-11T00:55:21.042Z,49.75
2022-12-11T01:00:22.899Z,49.85
2022-12-11T01:05:24.368Z,51.30
2022-12-11T01:10:25.925Z,48.80
2022-12-11T01:15:29.171Z,46.83
2022-12-11T01:20:30.647Z,49.65
2022-12-11T01:25:33.297Z,47.83
2022-12-11T01:30:34.912Z,49.72
2022-12-11T01:35:36.386Z,52.25
2022-12-11T01:40:37.854Z,57.60
2022-12-11T01:45:40.799Z,59.58
2022-12-11T01:50:56.372Z,59.90
2022-12-11T01:55:57.849Z,55.40
2022-12-11T02:00:59.390Z,57.88
2022-12-11T02:06:01.558Z,66.15
2022-12-11T02:11:15.019Z,62.47
2022-12-11T02:16:29.262Z,64.25
2022-12-11T02:21:34.791Z,63.47
2022-12-11T02:27:18.390Z,59.95
2022-12-11T02:32:23.484Z,56.65
2022-12-11T02:37:25.496Z,59.63
2022-12-11T02:42:29.923Z,68.30
2022-12-11T02:47:32.016Z,60.35
2022-12-11T02:52:33.500Z,56.75
2022-12-11T02:57:44.563Z,61.53
2022-12-11T03:02:46.090Z,62.85
2022-12-11T03:07:47.689Z,63.40
2022-12-11T03:12:53.594Z,56.85
2022-12-11T03:18:06.397Z,55.03
2022-12-11T03:23:34.613Z,61.72
2022-12-11T03:28:46.093Z,53.80
2022-12-11T03:33:47.843Z,58.15
2022-12-11T03:38:51.757Z,51.88
2022-12-11T03:43:54.312Z,65.72
2022-12-11T03:48:57.077Z,58.22
2022-12-11T03:53:58.557Z,61.28
2022-12-11T03:59:00.249Z,53.72
2022-12-11T04:04:01.755Z,54.13
2022-12-11T04:09:03.431Z,57.50
2022-12-11T04:14:25.755Z,61.90
2022-12-11T04:19:45.775Z,66.80
2022-12-11T04:24:49.093Z,67.50
2022-12-11T04:29:50.543Z,65.93
2022-12-11T04:34:51.995Z,58.13
2022-12-11T04:39:53.451Z,59.63
2022-12-11T04:44:54.913Z,58.58
2022-12-11T04:49:56.375Z,57.63
2022-12-11T04:54:57.855Z,59.55
2022-12-11T04:59:59.926Z,61.85
2022-12-11T05:05:01.575Z,55.58
2022-12-11T05:10:03.021Z,62.30
2022-12-11T05:15:04.633Z,54.05
2022-12-11T05:20:06.697Z,53.47
2022-12-11T05:25:08.281Z,56.67
2022-12-11T05:30:10.365Z,58.70
2022-12-11T05:35:12.163Z,51.13
2022-12-11T05:40:14.779Z,55.10
2022-12-11T05:45:16.246Z,48.05
2022-12-11T05:50:17.717Z,48.97
2022-12-11T05:55:19.172Z,47.92
2022-12-11T06:00:20.672Z,50.28
2022-12-11T06:05:22.137Z,47.83
2022-12-11T06:10:23.593Z,46.33
2022-12-11T06:15:25.060Z,43.85
2022-12-11T06:20:26.516Z,43.28
2022-12-11T06:25:28.611Z,44.25
2022-12-11T06:30:38.997Z,42.08
2022-12-11T06:35:42.444Z,33.50
2022-12-11T06:40:44.272Z,40.97
2022-12-11T06:45:45.796Z,39.38
2022-12-11T06:50:47.259Z,47.08
2022-12-11T06:55:48.718Z,35.65
2022-12-11T07:00:50.381Z,42.65
2022-12-11T07:05:51.869Z,36.83
2022-12-11T07:10:53.324Z,44.50
2022-12-11T07:15:54.993Z,34.28
2022-12-11T07:20:59.240Z,39.88
2022-12-11T07:26:07.204Z,43.95
2022-12-11T07:31:09.681Z,45.45
2022-12-11T07:36:12.044Z,49.75
2022-12-11T07:41:13.875Z,49.40
2022-12-11T07:46:17.340Z,43.13
2022-12-11T07:56:21.275Z,40.25
2022-12-11T08:01:24.286Z,36.33
2022-12-11T08:06:30.624Z,40.10
2022-12-11T08:11:32.076Z,36.45
2022-12-11T08:16:33.625Z,35.47
2022-12-11T08:21:35.132Z,41.03
2022-12-11T08:26:36.589Z,41.15
2022-12-11T08:31:39.307Z,34.65
2022-12-11T08:36:40.790Z,38.10
2022-12-11T08:41:42.247Z,35.60
2022-12-11T08:46:43.711Z,35.13
2022-12-11T08:51:45.172Z,36.30
2022-12-11T08:56:46.646Z,35.63
2022-12-11T09:01:48.147Z,39.30
2022-12-11T09:06:49.651Z,31.42
2022-12-11T09:11:51.110Z,27.02
2022-12-11T09:16:52.585Z,27.38
2022-12-11T09:21:54.037Z,26.77
2022-12-11T09:26:55.534Z,23.98
2022-12-11T09:31:57.008Z,18.83
2022-12-11T09:36:59.452Z,21.38
2022-12-11T09:42:19.592Z,21.98
2022-12-11T09:47:40.948Z,25.05
2022-12-11T09:53:12.503Z,20.40
2022-12-11T09:58:21.039Z,21.08
2022-12-11T10:03:56.716Z,16.63
2022-12-11T10:14:20.477Z,11.18
2022-12-11T10:19:24.565Z,14.93
2022-12-11T10:25:09.991Z,13.45
2022-12-11T10:30:14.648Z,12.68
2022-12-11T10:35:25.475Z,12.23
2022-12-11T10:40:26.928Z,14.27
2022-12-11T10:45:28.379Z,13.70
2022-12-11T10:50:29.836Z,16.67
2022-12-11T10:55:38.547Z,23.05
2022-12-11T11:00:40.588Z,14.77
2022-12-11T11:05:47.773Z,18.65
2022-12-11T11:10:55.693Z,17.08
2022-12-11T11:16:09.740Z,16.23
2022-12-11T11:21:18.281Z,20.45
2022-12-11T11:26:20.404Z,16.38
2022-12-11T11:31:31.988Z,18.67
2022-12-11T11:36:35.365Z,19.00
2022-12-11T11:41:50.598Z,20.20
2022-12-11T11:47:00.654Z,18.52
2022-12-11T11:52:16.089Z,19.85
2022-12-11T11:57:27.392Z,17.42
2022-12-11T12:02:28.901Z,19.38
2022-12-11T12:07:38.518Z,13.65
2022-12-11T12:13:44.425Z,12.27
2022-12-11T12:19:23.069Z,15.55
2022-12-11T12:24:35.835Z,12.73
2022-12-11T12:30:22.450Z,13.77
2022-12-11T12:35:35.913Z,13.48
2022-12-11T12:40:59.184Z,15.30
2022-12-11T12:46:07.173Z,13.50
2022-12-11T12:51:09.530Z,12.40
2022-12-11T12:56:11.750Z,14.85
2022-12-11T13:01:13.113Z,15.23
2022-12-11T13:06:14.669Z,16.58
2022-12-11T13:11:17.733Z,13.63
2022-12-11T13:16:19.052Z,16.50
2022-12-11T13:21:29.469Z,14.63
2022-12-11T13:26:32.708Z,17.23
2022-12-11T13:31:36.156Z,13.52
2022-12-11T13:41:39.159Z,19.25
2022-12-11T13:46:40.895Z,14.23
2022-12-11T13:51:51.624Z,16.30
2022-12-11T13:56:59.953Z,16.95
2022-12-11T14:02:05.391Z,14.82
2022-12-11T14:07:07.974Z,16.83
2022-12-11T14:12:19.901Z,15.65
2022-12-11T14:17:28.646Z,15.32
2022-12-11T14:22:30.142Z,16.15
2022-12-11T14:27:31.647Z,18.65
2022-12-11T14:32:35.956Z,17.63
2022-12-11T14:37:37.453Z,16.35
2022-12-11T14:42:41.047Z,20.33
2022-12-11T14:47:42.968Z,19.65
2022-12-11T14:52:47.293Z,19.42
2022-12-11T14:57:49.868Z,17.65
2022-12-11T15:03:07.269Z,19.25
2022-12-11T15:08:11.847Z,17.98
2022-12-11T15:13:16.632Z,16.02
2022-12-11T15:18:27.140Z,17.45
2022-12-11T15:23:28.986Z,22.15
2022-12-11T15:28:37.192Z,15.88
2022-12-11T15:33:46.539Z,17.75
2022-12-11T15:38:48.028Z,16.58
2022-12-11T15:43:53.940Z,15.00
2022-12-11T15:48:58.267Z,16.63
2022-12-11T15:53:59.763Z,15.35
2022-12-11T15:59:03.289Z,16.27
2022-12-11T16:09:07.009Z,13.10
2022-12-11T16:14:08.459Z,14.75
2022-12-11T16:19:09.916Z,13.85
2022-12-11T16:24:11.396Z,12.98
2022-12-11T16:29:12.869Z,14.48
2022-12-11T16:34:14.336Z,13.88
2022-12-11T16:39:15.791Z,11.88
2022-12-11T16:44:21.104Z,12.07
2022-12-11T16:49:22.664Z,11.02
2022-12-11T16:54:24.126Z,12.68
2022-12-11T16:59:25.598Z,14.43
2022-12-11T17:04:28.560Z,10.43
2022-12-11T17:09:30.035Z,11.20
2022-12-11T17:14:31.522Z,12.27
2022-12-11T17:19:33.152Z,11.32
2022-12-11T17:24:34.677Z,11.50
2022-12-11T17:29:36.228Z,10.98
2022-12-11T17:34:38.664Z,10.88
2022-12-11T17:39:40.329Z,11.27
2022-12-11T17:44:41.900Z,10.50
2022-12-11T17:49:43.399Z,10.82
2022-12-11T17:54:44.883Z,11.95
2022-12-11T17:59:46.417Z,12.05
2022-12-11T18:04:49.172Z,13.13
2022-12-11T18:09:50.639Z,11.02
2022-12-11T18:14:52.177Z,9.52
2022-12-11T18:19:53.709Z,9.20
2022-12-11T18:24:58.170Z,12.18
2022-12-11T18:29:59.756Z,11.07
2022-12-11T21:50:12.387Z,15.07
2022-12-11T21:55:14.146Z,16.02
2022-12-11T22:00:15.970Z,14.95
2022-12-11T22:05:17.440Z,16.23
2022-12-11T22:10:18.928Z,17.17
2022-12-11T22:15:20.432Z,16.55
2022-12-11T22:20:21.892Z,18.70
2022-12-11T22:25:23.361Z,18.67
2022-12-11T22:30:24.811Z,16.63
2022-12-11T22:35:27.490Z,19.10
2022-12-11T22:40:29.551Z,22.95
2022-12-11T22:45:31.053Z,21.75
2022-12-11T22:50:32.548Z,22.58
2022-12-11T22:55:34.101Z,19.40
2022-12-11T23:00:35.568Z,23.05
2022-12-11T23:05:39.615Z,25.00
2022-12-11T23:10:41.310Z,20.13
2022-12-11T23:15:42.820Z,19.60
2022-12-11T23:20:44.302Z,24.10
2022-12-11T23:25:45.778Z,19.73
2022-12-11T23:30:47.306Z,18.23
2022-12-11T23:35:48.805Z,20.08
2022-12-11T23:40:50.285Z,22.48
2022-12-11T23:45:51.768Z,18.25
2022-12-11T23:50:58.330Z,19.73
2022-12-11T23:56:07.224Z,17.85
